Historical Data

TheSutherlands

Weather at Humberside Airport

Current Weather from Humberside Airport

The information displayed on this page is from the METAR reports produced by Humberside Airport. Note that there are times when these are not generated.

Weather Report

Coded Weather Report: 2021/06/24 18:20 EGNJ 241820Z AUTO 26010KT 9999 FEW028/// SCT035/// 21/15 Q1018

Report issued: 2021/06/24 at 18:20 UTC

Weather: Code: AUTO
Wind: gentle breeze from the west (260 degrees) at 10 knots (12 mph, 19 kph, Force 3)
Visibility: 10km or more
Cloud: a few clouds at 2800 feet
Cloud: scattered at 3500 feet
Temperature: 21 C
Dewpoint: 15 C
Humidity: 69%
Pressure: 1018 hPa